Time,TemperatureF,DewpointF,PressureIn,WindDirection,WindDirectionDegrees,WindSpeedMPH,WindSpeedGustMPH,Humidity,HourlyPrecipIn,Conditions,Clouds,dailyrainin,SoftwareType,DateUTC
2013-04-15 00:03:00,90.0,74.0,-100.00,SSE,160,0.0,1.0,61,-99.99,,,-99.99,,2013-04-15 04:03:00,
2013-04-15 00:13:00,87.0,73.0,-100.00,SSE,165,0.0,1.0,62,-99.99,,,-99.99,,2013-04-15 04:13:00,
2013-04-15 00:23:00,72.0,56.0,-100.00,South,175,1.0,4.0,56,-99.99,,,-99.99,,2013-04-15 04:23:00,
2013-04-15 00:33:00,76.0,63.0,-100.00,SSW,200,3.0,4.0,64,-99.99,,,-99.99,,2013-04-15 04:33:00,
2013-04-15 00:43:00,72.0,59.0,-100.00,SW,225,4.0,6.0,64,-99.99,,,-99.99,,2013-04-15 04:43:00,
2013-04-15 00:52:00,94.0,80.0,-100.00,SE,135,4.0,6.0,63,-99.99,,,-99.99,,2013-04-15 04:52:00,
2013-04-15 01:03:00,81.0,68.0,-100.00,SSE,155,1.0,5.0,64,-99.99,,,-99.99,,2013-04-15 05:03:00,
2013-04-15 01:13:00,79.0,66.0,-100.00,SW,215,1.0,4.0,65,-99.99,,,-99.99,,2013-04-15 05:13:00,
2013-04-15 01:23:00,81.0,68.0,-100.00,SSE,165,0.0,3.0,64,-99.99,,,-99.99,,2013-04-15 05:23:00,
2013-04-15 01:33:00,85.0,73.0,-100.00,SW,220,1.0,2.0,67,-99.99,,,-99.99,,2013-04-15 05:33:00,
2013-04-15 01:42:00,85.0,72.0,-100.00,SSW,195,0.0,1.0,65,-99.99,,,-99.99,,2013-04-15 05:42:00,
2013-04-15 01:52:00,88.0,74.0,-100.00,South,170,1.0,1.0,64,-99.99,,,-99.99,,2013-04-15 05:52:00,
2013-04-15 02:02:00,83.0,74.0,-100.00,South,170,0.0,2.0,74,-99.99,,,-99.99,,2013-04-15 06:02:00,
2013-04-15 02:12:00,85.0,74.0,-100.00,South,170,0.0,3.0,71,-99.99,,,-99.99,,2013-04-15 06:12:00,
2013-04-15 02:23:00,85.0,72.0,-100.00,South,170,0.0,2.0,65,-99.99,,,-99.99,,2013-04-15 06:23:00,
2013-04-15 02:34:00,85.0,72.0,-100.00,South,170,0.0,0.0,65,-99.99,,,-99.99,,2013-04-15 06:34:00,
2013-04-15 02:40:00,87.0,73.0,-100.00,South,170,0.0,0.0,64,-99.99,,,-99.99,,2013-04-15 06:40:00,
2013-04-15 02:42:00,65.0,54.0,-100.00,South,170,0.0,1.0,67,-99.99,,,-99.99,,2013-04-15 06:42:00,
2013-04-15 02:52:00,69.0,56.0,-100.00,South,170,0.0,3.0,65,-99.99,,,-99.99,,2013-04-15 06:52:00,
2013-04-15 03:03:00,87.0,73.0,-100.00,South,170,0.0,4.0,64,-99.99,,,-99.99,,2013-04-15 07:03:00,
2013-04-15 03:42:00,85.0,72.0,-100.00,South,170,0.0,1.0,65,-99.99,,,-99.99,,2013-04-15 07:42:00,
2013-04-15 03:53:00,72.0,59.0,-100.00,South,175,0.0,1.0,64,-99.99,,,-99.99,,2013-04-15 07:53:00,
2013-04-15 04:03:00,88.0,74.0,-100.00,South,175,0.0,1.0,64,-99.99,,,-99.99,,2013-04-15 08:03:00,
2013-04-15 04:14:00,88.0,74.0,-100.00,South,175,0.0,1.0,64,-99.99,,,-99.99,,2013-04-15 08:14:00,
2013-04-15 04:22:00,80.0,62.0,-100.00,South,175,1.0,1.0,56,-99.99,,,-99.99,,2013-04-15 08:22:00,
2013-04-15 04:43:00,88.0,74.0,-100.00,SSW,205,0.0,1.0,64,-99.99,,,-99.99,,2013-04-15 08:43:00,
2013-04-15 04:52:00,102.0,89.0,-100.00,South,185,1.0,4.0,67,-99.99,,,-99.99,,2013-04-15 08:52:00,
2013-04-15 05:03:00,82.0,68.0,-100.00,South,175,0.0,4.0,64,-99.99,,,-99.99,,2013-04-15 09:03:00,
2013-04-15 05:13:00,79.0,62.0,-100.00,SW,225,1.0,4.0,56,-99.99,,,-99.99,,2013-04-15 09:13:00,
2013-04-15 05:23:00,83.0,70.0,-100.00,South,175,0.0,3.0,63,-99.99,,,-99.99,,2013-04-15 09:23:00,
2013-04-15 05:33:00,88.0,74.0,-100.00,SSW,195,0.0,0.0,64,-99.99,,,-99.99,,2013-04-15 09:33:00,
2013-04-15 05:43:00,88.0,74.0,-100.00,South,175,0.0,1.0,64,-99.99,,,-99.99,,2013-04-15 09:43:00,
2013-04-15 05:53:00,88.0,73.0,-100.00,SSE,165,0.0,0.0,62,-99.99,,,-99.99,,2013-04-15 09:53:00,
2013-04-15 06:03:00,88.0,73.0,-100.00,SSE,165,0.0,1.0,62,-99.99,,,-99.99,,2013-04-15 10:03:00,
2013-04-15 06:13:00,79.0,65.0,-100.00,South,170,0.0,0.0,63,-99.99,,,-99.99,,2013-04-15 10:13:00,
2013-04-15 06:23:00,85.0,71.0,-100.00,SSE,155,1.0,1.0,63,-99.99,,,-99.99,,2013-04-15 10:23:00,
2013-04-15 06:33:00,62.0,52.0,-100.00,SSW,195,1.0,2.0,71,-99.99,,,-99.99,,2013-04-15 10:33:00,
2013-04-15 06:42:00,69.0,59.0,-100.00,South,170,1.0,2.0,71,-99.99,,,-99.99,,2013-04-15 10:42:00,
2013-04-15 06:52:00,80.0,68.0,-100.00,SSE,160,4.0,5.0,69,-99.99,,,-99.99,,2013-04-15 10:52:00,
2013-04-15 07:03:00,65.0,52.0,-100.00,South,180,1.0,5.0,64,-99.99,,,-99.99,,2013-04-15 11:03:00,
2013-04-15 07:23:00,98.0,81.0,-100.00,South,170,1.0,2.0,57,-99.99,,,-99.99,,2013-04-15 11:23:00,
2013-04-15 07:33:00,65.0,55.0,-100.00,South,170,0.0,1.0,71,-99.99,,,-99.99,,2013-04-15 11:33:00,
2013-04-15 07:43:00,85.0,71.0,-100.00,South,170,0.0,0.0,63,-99.99,,,-99.99,,2013-04-15 11:43:00,
2013-04-15 07:53:00,79.0,65.0,-100.00,South,170,0.0,1.0,63,-99.99,,,-99.99,,2013-04-15 11:53:00,
2013-04-15 08:05:00,79.0,65.0,-100.00,South,170,0.0,1.0,63,-99.99,,,-99.99,,2013-04-15 12:05:00,
2013-04-15 08:14:00,80.0,67.0,-100.00,South,190,0.0,0.0,65,-99.99,,,-99.99,,2013-04-15 12:14:00,
2013-04-15 08:23:00,79.0,65.0,-100.00,SSE,160,0.0,0.0,63,-99.99,,,-99.99,,2013-04-15 12:23:00,
2013-04-15 08:34:00,96.0,86.0,-100.00,SSE,160,0.0,0.0,73,-99.99,,,-99.99,,2013-04-15 12:34:00,
2013-04-15 08:43:00,65.0,52.0,-100.00,SE,135,1.0,2.0,63,-99.99,,,-99.99,,2013-04-15 12:43:00,
2013-04-15 08:53:00,96.0,82.0,-100.00,SSE,165,0.0,2.0,65,-99.99,,,-99.99,,2013-04-15 12:53:00,
2013-04-15 09:05:00,57.0,41.0,-100.00,SSE,150,1.0,3.0,56,-99.99,,,-99.99,,2013-04-15 13:05:00,
2013-04-15 09:13:00,76.0,63.0,-100.00,SSE,165,0.0,1.0,65,-99.99,,,-99.99,,2013-04-15 13:13:00,
2013-04-15 09:23:00,86.0,73.0,-100.00,SE,135,2.0,3.0,65,-99.99,,,-99.99,,2013-04-15 13:23:00,
2013-04-15 09:34:00,76.0,63.0,-100.00,SSE,155,0.0,1.0,65,-99.99,,,-99.99,,2013-04-15 13:34:00,
2013-04-15 09:43:00,79.0,66.0,-100.00,SSE,165,1.0,3.0,65,-99.99,,,-99.99,,2013-04-15 13:43:00,
2013-04-15 09:53:00,76.0,60.0,-100.00,SSW,205,1.0,3.0,58,-99.99,,,-99.99,,2013-04-15 13:53:00,
2013-04-15 10:05:00,52.0,40.0,-100.00,ESE,120,1.0,1.0,63,-99.99,,,-99.99,,2013-04-15 14:05:00,
2013-04-15 10:13:00,69.0,57.0,-100.00,SE,125,1.0,3.0,67,-99.99,,,-99.99,,2013-04-15 14:13:00,
2013-04-15 10:23:00,60.0,50.0,-100.00,SSE,155,1.0,3.0,69,-99.99,,,-99.99,,2013-04-15 14:23:00,
2013-04-15 10:34:00,68.0,53.0,-100.00,South,190,1.0,4.0,59,-99.99,,,-99.99,,2013-04-15 14:34:00,
2013-04-15 10:44:00,52.0,40.0,-100.00,ESE,115,2.0,4.0,64,-99.99,,,-99.99,,2013-04-15 14:44:00,
2013-04-15 10:54:00,52.0,40.0,-100.00,ESE,115,2.0,7.0,64,-99.99,,,-99.99,,2013-04-15 14:54:00,
2013-04-15 11:04:00,60.0,45.0,-100.00,SSE,150,1.0,6.0,58,-99.99,,,-99.99,,2013-04-15 15:04:00,
2013-04-15 11:13:00,72.0,59.0,-100.00,SSE,150,1.0,9.0,62,-99.99,,,-99.99,,2013-04-15 15:13:00,
2013-04-15 11:24:00,80.0,68.0,-100.00,SSW,195,4.0,8.0,68,-99.99,,,-99.99,,2013-04-15 15:24:00,
2013-04-15 11:44:00,72.0,59.0,-100.00,SE,140,4.0,6.0,62,-99.99,,,-99.99,,2013-04-15 15:44:00,
2013-04-15 11:54:00,76.0,61.0,-100.00,SE,140,4.0,6.0,61,-99.99,,,-99.99,,2013-04-15 15:54:00,
2013-04-15 12:05:00,80.0,66.0,-100.00,SW,235,4.0,7.0,62,-99.99,,,-99.99,,2013-04-15 16:05:00,
2013-04-15 12:14:00,76.0,60.0,-100.00,SE,135,4.0,9.0,57,-99.99,,,-99.99,,2013-04-15 16:14:00,
2013-04-15 12:25:00,76.0,61.0,-100.00,SSE,165,5.0,10.0,61,-99.99,,,-99.99,,2013-04-15 16:25:00,
2013-04-15 12:34:00,72.0,56.0,-100.00,SE,145,4.0,9.0,56,-99.99,,,-99.99,,2013-04-15 16:34:00,
2013-04-15 12:44:00,83.0,65.0,-100.00,SE,135,6.0,9.0,54,-99.99,,,-99.99,,2013-04-15 16:44:00,
2013-04-15 12:53:00,83.0,65.0,-100.00,SE,135,6.0,9.0,54,-99.99,,,-99.99,,2013-04-15 16:53:00,
2013-04-15 13:04:00,80.0,55.0,-100.00,South,185,6.0,11.0,42,-99.99,,,-99.99,,2013-04-15 17:04:00,
2013-04-15 13:15:00,76.0,53.0,-100.00,SSW,205,1.0,14.0,45,-99.99,,,-99.99,,2013-04-15 17:15:00,
2013-04-15 13:22:00,88.0,63.0,-100.00,SSW,200,4.0,9.0,44,-99.99,,,-99.99,,2013-04-15 17:22:00,
2013-04-15 13:33:00,72.0,45.0,-100.00,South,185,4.0,11.0,38,-99.99,,,-99.99,,2013-04-15 17:33:00,
2013-04-15 13:43:00,90.0,61.0,-100.00,South,170,7.0,12.0,39,-99.99,,,-99.99,,2013-04-15 17:43:00,
2013-04-15 13:52:00,90.0,61.0,-100.00,South,170,7.0,12.0,39,-99.99,,,-99.99,,2013-04-15 17:52:00,
2013-04-15 14:04:00,76.0,49.0,-100.00,SSE,160,6.0,11.0,38,-99.99,,,-99.99,,2013-04-15 18:04:00,
2013-04-15 14:13:00,80.0,53.0,-100.00,WNW,285,6.0,10.0,39,-99.99,,,-99.99,,2013-04-15 18:13:00,
2013-04-15 14:24:00,80.0,53.0,-100.00,South,190,6.0,10.0,39,-99.99,,,-99.99,,2013-04-15 18:24:00,
2013-04-15 14:33:00,80.0,53.0,-100.00,South,190,6.0,13.0,39,-99.99,,,-99.99,,2013-04-15 18:33:00,
2013-04-15 14:42:00,68.0,41.0,-100.00,SE,140,4.0,9.0,38,-99.99,,,-99.99,,2013-04-15 18:42:00,
2013-04-15 14:52:00,68.0,41.0,-100.00,SE,140,4.0,9.0,38,-99.99,,,-99.99,,2013-04-15 18:52:00,
2013-04-15 15:02:00,76.0,48.0,-100.00,SSW,205,4.0,10.0,37,-99.99,,,-99.99,,2013-04-15 19:02:00,
2013-04-15 15:12:00,80.0,51.0,-100.00,North,0,4.0,9.0,37,-99.99,,,-99.99,,2013-04-15 19:12:00,
2013-04-15 15:22:00,83.0,55.0,-100.00,South,185,4.0,13.0,38,-99.99,,,-99.99,,2013-04-15 19:22:00,
2013-04-15 15:38:00,72.0,41.0,-100.00,SE,140,1.0,9.0,32,-99.99,,,-99.99,,2013-04-15 19:38:00,
2013-04-15 15:56:00,80.0,51.0,-100.00,South,175,5.0,9.0,36,-99.99,,,-99.99,,2013-04-15 19:56:00,
2013-04-15 16:02:00,80.0,49.0,-100.00,SW,235,4.0,6.0,34,-99.99,,,-99.99,,2013-04-15 20:02:00,
2013-04-15 16:12:00,76.0,47.0,-100.00,South,185,8.0,13.0,36,-99.99,,,-99.99,,2013-04-15 20:12:00,
2013-04-15 16:22:00,83.0,51.0,-100.00,SE,125,3.0,7.0,33,-99.99,,,-99.99,,2013-04-15 20:22:00,
2013-04-15 16:32:00,76.0,45.0,-100.00,SW,215,4.0,6.0,33,-99.99,,,-99.99,,2013-04-15 20:32:00,
2013-04-15 16:42:00,72.0,41.0,-100.00,South,185,4.0,7.0,33,-99.99,,,-99.99,,2013-04-15 20:42:00,
2013-04-15 16:52:00,72.0,41.0,-100.00,South,185,4.0,7.0,33,-99.99,,,-99.99,,2013-04-15 20:52:00,
2013-04-15 17:02:00,80.0,47.0,-100.00,South,190,5.0,10.0,31,-99.99,,,-99.99,,2013-04-15 21:02:00,
2013-04-15 17:12:00,76.0,42.0,-100.00,SSW,200,7.0,11.0,29,-99.99,,,-99.99,,2013-04-15 21:12:00,
2013-04-15 17:22:00,80.0,48.0,-100.00,South,175,2.0,8.0,33,-99.99,,,-99.99,,2013-04-15 21:22:00,
2013-04-15 17:33:00,76.0,44.0,-100.00,SSW,200,5.0,9.0,32,-99.99,,,-99.99,,2013-04-15 21:33:00,
2013-04-15 17:43:00,76.0,44.0,-100.00,WSW,245,4.0,7.0,32,-99.99,,,-99.99,,2013-04-15 21:43:00,
2013-04-15 17:53:00,72.0,41.0,-100.00,West,265,2.0,7.0,33,-99.99,,,-99.99,,2013-04-15 21:53:00,
2013-04-15 18:02:00,68.0,35.0,-100.00,ESE,120,4.0,6.0,29,-99.99,,,-99.99,,2013-04-15 22:02:00,
2013-04-15 18:13:00,88.0,48.0,-100.00,South,175,1.0,6.0,26,-99.99,,,-99.99,,2013-04-15 22:13:00,
2013-04-15 18:23:00,72.0,39.0,-100.00,South,175,1.0,6.0,30,-99.99,,,-99.99,,2013-04-15 22:23:00,
2013-04-15 18:33:00,80.0,45.0,-100.00,South,170,5.0,7.0,29,-99.99,,,-99.99,,2013-04-15 22:33:00,
2013-04-15 18:42:00,76.0,40.0,-100.00,SE,140,3.0,6.0,27,-99.99,,,-99.99,,2013-04-15 22:42:00,
2013-04-15 18:52:00,72.0,35.0,-100.00,ESE,110,3.0,7.0,26,-99.99,,,-99.99,,2013-04-15 22:52:00,
2013-04-15 19:02:00,80.0,46.0,-100.00,South,180,2.0,6.0,30,-99.99,,,-99.99,,2013-04-15 23:02:00,
2013-04-15 19:12:00,80.0,45.0,-100.00,South,170,6.0,9.0,29,-99.99,,,-99.99,,2013-04-15 23:12:00,
2013-04-15 19:22:00,76.0,42.0,-100.00,South,175,7.0,10.0,29,-99.99,,,-99.99,,2013-04-15 23:22:00,
2013-04-15 19:32:00,68.0,35.0,-100.00,SE,140,4.0,9.0,30,-99.99,,,-99.99,,2013-04-15 23:32:00,
2013-04-15 19:42:00,76.0,44.0,-100.00,South,190,5.0,9.0,32,-99.99,,,-99.99,,2013-04-15 23:42:00,
2013-04-15 19:52:00,68.0,38.0,-100.00,SSE,150,3.0,7.0,33,-99.99,,,-99.99,,2013-04-15 23:52:00,
2013-04-15 20:03:00,65.0,38.0,-100.00,SSE,155,1.0,6.0,37,-99.99,,,-99.99,,2013-04-16 00:03:00,
2013-04-15 20:12:00,59.0,30.0,-100.00,South,170,2.0,6.0,34,-99.99,,,-99.99,,2013-04-16 00:12:00,
2013-04-15 20:22:00,59.0,30.0,-100.00,North,0,1.0,3.0,33,-99.99,,,-99.99,,2013-04-16 00:22:00,
2013-04-15 20:32:00,59.0,30.0,-100.00,North,0,1.0,3.0,33,-99.99,,,-99.99,,2013-04-16 00:32:00,
2013-04-15 20:42:00,76.0,48.0,-100.00,South,180,0.0,1.0,37,-99.99,,,-99.99,,2013-04-16 00:42:00,
2013-04-15 20:52:00,65.0,39.0,-100.00,South,180,0.0,1.0,39,-99.99,,,-99.99,,2013-04-16 00:52:00,
2013-04-15 21:02:00,60.0,37.0,-100.00,SSW,210,0.0,3.0,42,-99.99,,,-99.99,,2013-04-16 01:02:00,
2013-04-15 21:12:00,49.0,25.0,-100.00,South,185,1.0,2.0,38,-99.99,,,-99.99,,2013-04-16 01:12:00,
2013-04-15 21:22:00,76.0,52.0,-100.00,South,185,0.0,3.0,43,-99.99,,,-99.99,,2013-04-16 01:22:00,
2013-04-15 21:32:00,59.0,37.0,-100.00,South,185,0.0,1.0,44,-99.99,,,-99.99,,2013-04-16 01:32:00,
2013-04-15 21:42:00,59.0,37.0,-100.00,South,185,0.0,0.0,44,-99.99,,,-99.99,,2013-04-16 01:42:00,
2013-04-15 22:52:00,28.0,11.0,-100.00,SW,220,0.0,1.0,48,-99.99,,,-99.99,,2013-04-16 02:52:00,
2013-04-15 23:02:00,20.0,3.0,-100.00,South,185,0.0,0.0,48,-99.99,,,-99.99,,2013-04-16 03:02:00,
2013-04-15 23:12:00,20.0,3.0,-100.00,South,185,0.0,0.0,48,-99.99,,,-99.99,,2013-04-16 03:12:00,
2013-04-15 23:22:00,14.0,-2.0,-100.00,SW,220,0.0,0.0,49,-99.99,,,-99.99,,2013-04-16 03:22:00,
2013-04-15 23:33:00,28.0,11.0,-100.00,South,185,0.0,0.0,50,-99.99,,,-99.99,,2013-04-16 03:33:00,
2013-04-15 23:43:00,28.0,12.0,-100.00,SW,220,0.0,0.0,52,-99.99,,,-99.99,,2013-04-16 03:43:00,
2013-04-15 23:52:00,30.0,14.0,-100.00,WSW,245,1.0,2.0,51,-99.99,,,-99.99,,2013-04-16 03:52:00,